createdAt,value
2023-03-14T00:00:09.205Z,100.00
2023-03-14T00:02:36.132Z,100.00
2023-03-14T00:05:07.447Z,100.00
2023-03-14T00:07:36.294Z,100.00
2023-03-14T00:10:15.616Z,100.00
2023-03-14T00:12:43.010Z,100.00
2023-03-14T00:15:10.225Z,100.00
2023-03-14T00:17:37.583Z,100.00
2023-03-14T00:20:09.338Z,100.00
2023-03-14T00:22:36.908Z,100.00
2023-03-14T00:25:05.177Z,100.00
2023-03-14T00:27:31.971Z,100.00
2023-03-14T00:29:58.691Z,100.00
2023-03-14T00:32:25.482Z,100.00
2023-03-14T00:34:52.164Z,100.00
2023-03-14T00:37:19.257Z,100.00
2023-03-14T00:39:45.942Z,100.00
2023-03-14T00:42:12.557Z,100.00
2023-03-14T00:44:39.125Z,100.00
2023-03-14T00:47:07.757Z,100.00
2023-03-14T00:49:34.483Z,100.00
2023-03-14T00:52:01.038Z,100.00
2023-03-14T00:54:27.447Z,100.00
2023-03-14T00:56:53.939Z,100.00
2023-03-14T00:59:20.465Z,100.00
2023-03-14T01:01:47.142Z,100.00
2023-03-14T01:04:14.165Z,99.66
2023-03-14T01:06:41.012Z,100.00
2023-03-14T01:09:07.646Z,100.00
2023-03-14T01:11:35.889Z,100.00
2023-03-14T01:14:03.602Z,100.00
2023-03-14T01:16:33.570Z,100.00
2023-03-14T01:19:02.139Z,100.00
2023-03-14T01:21:31.257Z,100.00
2023-03-14T01:23:59.606Z,100.00
2023-03-14T01:26:30.180Z,100.00
2023-03-14T01:28:57.597Z,100.00
2023-03-14T01:31:25.689Z,100.00
2023-03-14T01:33:52.638Z,100.00
2023-03-14T01:36:19.575Z,100.00
2023-03-14T01:38:46.569Z,100.00
2023-03-14T01:41:19.131Z,100.00
2023-03-14T01:43:46.026Z,100.00
2023-03-14T01:46:27.169Z,100.00
2023-03-14T01:49:05.476Z,100.00
2023-03-14T01:51:57.782Z,100.00
2023-03-14T01:54:38.698Z,100.00
2023-03-14T01:57:09.739Z,100.00
2023-03-14T01:59:37.922Z,100.00
2023-03-14T02:02:11.118Z,100.00
2023-03-14T02:04:39.556Z,100.00
2023-03-14T02:07:13.486Z,100.00
2023-03-14T02:09:45.554Z,100.00
2023-03-14T02:12:21.458Z,100.00
2023-03-14T02:14:52.522Z,100.00
2023-03-14T02:17:38.489Z,100.00
2023-03-14T02:20:27.452Z,100.00
2023-03-14T02:22:56.792Z,100.00
2023-03-14T02:26:00.243Z,100.00
2023-03-14T02:28:26.805Z,100.00
2023-03-14T02:30:56.555Z,100.00
2023-03-14T02:33:24.224Z,100.00
2023-03-14T02:35:57.581Z,100.00
2023-03-14T02:39:02.255Z,100.00
2023-03-14T02:41:30.749Z,100.00
2023-03-14T02:44:03.870Z,100.00
2023-03-14T02:46:31.409Z,100.00
2023-03-14T02:49:04.079Z,100.00
2023-03-14T02:51:33.086Z,100.00
2023-03-14T02:53:59.674Z,100.00
2023-03-14T02:56:26.339Z,100.00
2023-03-14T02:58:52.960Z,100.00
2023-03-14T03:01:27.571Z,100.00
2023-03-14T03:03:54.298Z,100.00
2023-03-14T03:06:21.344Z,100.00
2023-03-14T03:08:47.905Z,100.00
2023-03-14T03:11:14.349Z,100.00
2023-03-14T03:13:41.006Z,100.00
2023-03-14T03:16:08.649Z,100.00
2023-03-14T03:18:35.447Z,100.00
2023-03-14T03:21:04.502Z,100.00
2023-03-14T03:23:31.354Z,100.00
2023-03-14T03:25:58.082Z,100.00
2023-03-14T03:28:24.725Z,100.00
2023-03-14T03:30:52.512Z,100.00
2023-03-14T03:33:19.156Z,100.00
2023-03-14T03:35:48.287Z,100.00
2023-03-14T03:38:17.901Z,100.00
2023-03-14T03:40:45.920Z,100.00
2023-03-14T03:43:12.551Z,100.00
2023-03-14T03:45:42.417Z,100.00
2023-03-14T03:48:09.093Z,100.00
2023-03-14T03:50:36.065Z,100.00
2023-03-14T03:53:03.005Z,100.00
2023-03-14T03:55:29.605Z,100.00
2023-03-14T03:57:56.288Z,100.00
2023-03-14T04:00:22.867Z,100.00
2023-03-14T04:02:49.529Z,100.00
2023-03-14T04:05:17.831Z,100.00
2023-03-14T04:07:50.946Z,100.00
2023-03-14T04:10:23.069Z,100.00
2023-03-14T04:13:04.001Z,100.00
2023-03-14T04:15:32.590Z,100.00
2023-03-14T04:18:02.865Z,100.00
2023-03-14T04:20:30.594Z,100.00
2023-03-14T04:22:57.418Z,100.00
2023-03-14T04:25:26.407Z,100.00
2023-03-14T04:27:56.352Z,100.00
2023-03-14T04:30:25.529Z,100.00
2023-03-14T04:32:55.451Z,100.00
2023-03-14T04:35:24.851Z,100.00
2023-03-14T04:37:55.310Z,100.00
2023-03-14T04:40:23.041Z,100.00
2023-03-14T04:42:52.224Z,100.00
2023-03-14T04:45:18.975Z,100.00
2023-03-14T04:47:46.569Z,100.00
2023-03-14T04:50:17.280Z,100.00
2023-03-14T04:52:44.230Z,100.00
2023-03-14T04:55:14.155Z,100.00
2023-03-14T04:57:40.766Z,100.00
2023-03-14T05:00:10.730Z,100.00
2023-03-14T05:02:47.858Z,100.00
2023-03-14T05:05:32.790Z,100.00
2023-03-14T05:08:01.945Z,100.00
2023-03-14T05:10:40.024Z,100.00
2023-03-14T05:13:18.157Z,100.00
2023-03-14T05:16:10.190Z,100.00
2023-03-14T05:18:45.987Z,100.00
2023-03-14T05:21:24.613Z,100.00
2023-03-14T05:24:07.091Z,100.00
2023-03-14T05:27:06.222Z,100.00
2023-03-14T05:29:41.531Z,100.00
2023-03-14T05:32:30.750Z,100.00
2023-03-14T05:35:13.669Z,100.00
2023-03-14T05:38:06.197Z,100.00
2023-03-14T05:40:53.189Z,100.00
2023-03-14T05:43:38.294Z,100.00
2023-03-14T05:46:14.786Z,100.00
2023-03-14T05:48:49.926Z,95.94
2023-03-14T05:51:27.907Z,100.00
2023-03-14T05:54:20.642Z,100.00
2023-03-14T05:57:05.889Z,100.00
2023-03-14T05:59:50.860Z,99.84
2023-03-14T06:02:35.828Z,100.00
2023-03-14T06:05:13.034Z,100.00
2023-03-14T06:07:39.687Z,100.00
2023-03-14T06:10:06.939Z,100.00
2023-03-14T06:12:33.556Z,100.00
2023-03-14T06:15:00.094Z,100.00
2023-03-14T06:17:27.251Z,100.00
2023-03-14T06:20:01.905Z,100.00
2023-03-14T06:22:30.362Z,98.39
2023-03-14T06:24:56.767Z,100.00
2023-03-14T06:27:24.788Z,100.00
2023-03-14T06:29:54.455Z,100.00
2023-03-14T06:32:21.582Z,99.39
2023-03-14T06:34:51.298Z,99.96
2023-03-14T06:37:20.646Z,100.00
2023-03-14T06:39:48.285Z,100.00
2023-03-14T06:42:24.837Z,97.86
2023-03-14T06:44:53.344Z,99.07
2023-03-14T06:47:20.169Z,100.00
2023-03-14T06:49:46.801Z,100.00
2023-03-14T06:52:14.252Z,97.84
2023-03-14T06:54:40.730Z,98.50
2023-03-14T06:57:07.742Z,98.40
2023-03-14T06:59:34.304Z,96.78
2023-03-14T07:02:00.713Z,95.84
2023-03-14T07:04:27.314Z,96.55
2023-03-14T07:06:54.108Z,95.64
2023-03-14T07:09:20.600Z,94.99
2023-03-14T07:11:52.745Z,92.45
2023-03-14T07:14:20.902Z,91.22
2023-03-14T07:16:48.865Z,91.91
2023-03-14T07:19:15.335Z,93.07
2023-03-14T07:21:41.966Z,94.25
2023-03-14T07:24:11.881Z,93.48
2023-03-14T07:26:38.290Z,93.64
2023-03-14T07:29:05.831Z,94.10
2023-03-14T07:31:32.660Z,95.87
2023-03-14T07:34:00.127Z,96.10
2023-03-14T07:36:30.987Z,93.44
2023-03-14T07:38:57.560Z,92.66
2023-03-14T07:41:39.548Z,93.58
2023-03-14T07:44:24.802Z,93.30
2023-03-14T07:46:51.323Z,91.62
2023-03-14T07:49:17.856Z,93.34
2023-03-14T07:51:45.146Z,92.48
2023-03-14T07:54:11.677Z,91.72
2023-03-14T07:56:38.071Z,92.85
2023-03-14T07:59:04.578Z,94.10
2023-03-14T08:01:31.020Z,93.15
2023-03-14T08:03:57.729Z,92.29
2023-03-14T08:06:24.309Z,90.87
2023-03-14T08:08:50.720Z,89.35
2023-03-14T08:11:17.251Z,90.02
2023-03-14T08:13:50.374Z,88.77
2023-03-14T08:16:18.369Z,89.55
2023-03-14T08:18:45.736Z,89.45
2023-03-14T08:21:13.027Z,87.65
2023-03-14T08:23:39.492Z,87.76
2023-03-14T08:26:06.125Z,88.58
2023-03-14T08:28:34.164Z,89.45
2023-03-14T08:31:01.862Z,87.87
2023-03-14T08:33:30.066Z,84.99
2023-03-14T08:35:58.568Z,86.56
2023-03-14T08:38:25.375Z,87.13
2023-03-14T08:40:59.612Z,87.00
2023-03-14T08:43:26.897Z,86.86
2023-03-14T08:45:53.465Z,88.14
2023-03-14T08:48:20.500Z,85.87
2023-03-14T08:50:47.385Z,86.52
2023-03-14T08:53:14.025Z,81.96
2023-03-14T08:55:40.490Z,81.52
2023-03-14T08:58:06.855Z,83.17
2023-03-14T09:00:33.314Z,82.45
2023-03-14T09:02:59.750Z,84.17
2023-03-14T09:05:26.271Z,81.99
2023-03-14T09:07:52.682Z,81.85
2023-03-14T09:10:19.485Z,82.31
2023-03-14T09:12:45.987Z,79.28
2023-03-14T09:15:12.566Z,77.43
2023-03-14T09:17:39.039Z,78.19
2023-03-14T09:20:09.840Z,80.29
2023-03-14T09:22:36.801Z,79.86
2023-03-14T09:25:06.431Z,80.20
2023-03-14T09:27:32.920Z,78.19
2023-03-14T09:29:59.307Z,77.97
2023-03-14T09:32:25.800Z,78.21
2023-03-14T09:34:52.187Z,77.66
2023-03-14T09:37:18.829Z,75.57
2023-03-14T09:39:45.304Z,74.61
2023-03-14T09:42:17.439Z,74.23
2023-03-14T09:45:00.339Z,74.41
2023-03-14T09:47:28.638Z,74.68
2023-03-14T09:49:55.193Z,75.25
2023-03-14T09:52:33.128Z,74.02
2023-03-14T09:55:02.321Z,71.68
2023-03-14T09:57:35.081Z,73.42
2023-03-14T10:00:14.950Z,74.37
2023-03-14T10:02:43.866Z,71.87
2023-03-14T10:05:18.506Z,71.28
2023-03-14T10:07:45.284Z,71.97
2023-03-14T10:10:16.927Z,72.22
2023-03-14T10:12:47.663Z,72.73
2023-03-14T10:15:19.186Z,71.21
2023-03-14T10:17:49.381Z,69.38
2023-03-14T10:20:42.705Z,71.45
2023-03-14T10:23:12.126Z,68.73
2023-03-14T10:25:41.703Z,67.30
2023-03-14T10:28:31.893Z,68.77
2023-03-14T10:30:59.505Z,69.14
2023-03-14T10:33:31.285Z,67.07
2023-03-14T10:36:20.479Z,66.52
2023-03-14T10:38:47.119Z,68.64
2023-03-14T10:41:33.070Z,66.63
2023-03-14T10:44:00.895Z,67.58
2023-03-14T10:46:32.042Z,68.92
2023-03-14T10:49:38.136Z,68.53
2023-03-14T10:52:30.970Z,67.68
2023-03-14T10:55:12.307Z,66.19
2023-03-14T10:57:43.601Z,65.01
2023-03-14T11:00:34.142Z,65.18
2023-03-14T11:03:13.761Z,65.33
2023-03-14T11:05:56.987Z,65.46
2023-03-14T11:08:40.254Z,64.42
2023-03-14T11:11:30.106Z,63.57
2023-03-14T11:14:13.413Z,63.25
2023-03-14T11:16:47.438Z,62.78
2023-03-14T11:19:30.236Z,64.12
2023-03-14T11:22:25.601Z,65.07
2023-03-14T11:25:18.953Z,63.64
2023-03-14T11:28:07.910Z,62.52
2023-03-14T11:30:51.066Z,66.69
2023-03-14T11:33:22.684Z,68.02
2023-03-14T11:35:52.611Z,67.12
2023-03-14T11:38:33.169Z,68.26
2023-03-14T11:41:00.961Z,69.43
2023-03-14T11:43:33.730Z,68.38
2023-03-14T11:46:09.127Z,67.53
2023-03-14T11:49:23.291Z,68.93
2023-03-14T11:51:55.372Z,67.01
2023-03-14T11:54:35.636Z,68.84
2023-03-14T11:57:05.344Z,66.52
2023-03-14T11:59:43.587Z,67.92
2023-03-14T12:02:34.576Z,68.24
2023-03-14T12:05:32.140Z,64.70
2023-03-14T12:08:20.256Z,66.96
2023-03-14T12:10:51.306Z,65.51
2023-03-14T12:13:19.177Z,66.16
2023-03-14T12:15:59.646Z,66.93
2023-03-14T12:18:35.550Z,67.71
2023-03-14T12:21:05.815Z,67.54
2023-03-14T12:23:41.834Z,69.20
2023-03-14T12:26:23.114Z,70.53
2023-03-14T12:29:10.130Z,73.03
2023-03-14T12:31:39.119Z,71.22
2023-03-14T12:34:26.988Z,70.13
2023-03-14T12:37:11.087Z,71.53
2023-03-14T12:40:10.468Z,70.76
2023-03-14T12:42:45.829Z,69.03
2023-03-14T12:45:15.668Z,69.68
2023-03-14T12:47:46.916Z,69.59
2023-03-14T12:50:18.967Z,70.19
2023-03-14T12:52:48.209Z,69.28
2023-03-14T12:55:26.479Z,69.09
2023-03-14T12:58:04.584Z,69.48
2023-03-14T13:00:34.669Z,68.25
2023-03-14T13:03:19.448Z,67.04
2023-03-14T13:05:55.544Z,70.83
2023-03-14T13:08:39.571Z,72.65
2023-03-14T13:11:11.260Z,72.77
2023-03-14T13:13:43.206Z,78.50
2023-03-14T13:16:15.467Z,81.35
2023-03-14T13:18:44.359Z,80.46
2023-03-14T13:21:20.553Z,79.20
2023-03-14T13:24:02.427Z,83.18
2023-03-14T13:26:49.228Z,82.39
2023-03-14T13:29:18.473Z,81.49
2023-03-14T13:31:46.996Z,81.13
2023-03-14T13:34:14.037Z,83.42
2023-03-14T13:36:40.676Z,85.93
2023-03-14T13:39:23.080Z,87.82
2023-03-14T13:41:49.779Z,89.45
2023-03-14T13:44:27.332Z,86.74
2023-03-14T13:47:02.334Z,91.70
2023-03-14T13:49:33.400Z,91.94
2023-03-14T13:51:59.827Z,93.15
2023-03-14T13:54:27.921Z,93.49
2023-03-14T13:57:05.817Z,94.11
2023-03-14T13:59:36.230Z,93.84
2023-03-14T14:02:18.313Z,91.78
2023-03-14T14:04:45.451Z,94.23
2023-03-14T14:07:19.428Z,94.28
2023-03-14T14:09:51.594Z,96.21
2023-03-14T14:12:36.335Z,92.16
2023-03-14T14:15:08.455Z,92.93
2023-03-14T14:17:39.760Z,95.09
2023-03-14T14:20:09.784Z,92.81
2023-03-14T14:22:36.575Z,92.08
2023-03-14T14:25:03.831Z,93.83
2023-03-14T14:27:37.278Z,91.37
2023-03-14T14:30:28.551Z,89.05
2023-03-14T14:33:12.657Z,88.47
2023-03-14T14:35:39.261Z,89.74
2023-03-14T14:38:14.046Z,87.23
2023-03-14T14:40:46.595Z,84.07
2023-03-14T14:43:18.665Z,83.05
2023-03-14T14:45:48.589Z,81.77
2023-03-14T14:48:15.081Z,81.40
2023-03-14T14:50:47.576Z,76.29
2023-03-14T14:53:37.264Z,73.85
2023-03-14T14:56:28.403Z,75.99
2023-03-14T14:59:02.769Z,74.49
2023-03-14T15:01:38.992Z,76.67
2023-03-14T15:04:14.817Z,74.77
2023-03-14T15:06:47.492Z,77.31
2023-03-14T15:09:14.302Z,74.92
2023-03-14T15:11:40.825Z,73.02
2023-03-14T15:14:08.019Z,71.64
2023-03-14T15:16:34.704Z,70.61
2023-03-14T15:19:17.991Z,69.97
2023-03-14T15:21:49.706Z,66.69
2023-03-14T15:24:16.879Z,65.08
2023-03-14T15:26:46.025Z,64.20
2023-03-14T15:29:13.700Z,62.49
2023-03-14T15:31:42.043Z,62.52
2023-03-14T15:34:09.827Z,58.44
2023-03-14T15:36:38.045Z,57.66
2023-03-14T15:39:06.969Z,59.22
2023-03-14T15:41:34.124Z,57.87
2023-03-14T15:44:00.598Z,57.83
2023-03-14T15:46:28.685Z,57.95
2023-03-14T15:48:56.364Z,57.73
2023-03-14T15:51:22.844Z,59.27
2023-03-14T15:53:49.353Z,56.54
2023-03-14T15:56:17.271Z,58.97
2023-03-14T15:58:47.369Z,59.28
2023-03-14T16:01:16.816Z,58.24
2023-03-14T16:03:45.428Z,57.87
2023-03-14T16:06:13.107Z,57.94
2023-03-14T16:08:39.591Z,56.96
2023-03-14T16:11:06.155Z,56.91
2023-03-14T16:13:32.629Z,57.63
2023-03-14T16:16:00.493Z,56.45
2023-03-14T16:18:30.493Z,54.41
2023-03-14T16:20:59.610Z,54.84
2023-03-14T16:23:27.102Z,55.17
2023-03-14T16:25:54.693Z,55.25
2023-03-14T16:28:21.596Z,54.56
2023-03-14T16:30:48.198Z,54.78
2023-03-14T16:33:15.868Z,54.75
2023-03-14T16:35:53.213Z,54.70
2023-03-14T16:38:19.672Z,56.01
2023-03-14T16:40:55.290Z,55.75
2023-03-14T16:43:21.762Z,55.72
2023-03-14T16:45:50.073Z,57.01
2023-03-14T16:48:16.624Z,55.71
2023-03-14T16:50:43.202Z,56.48
2023-03-14T16:53:11.914Z,57.57
2023-03-14T16:55:42.730Z,57.02
2023-03-14T16:58:09.735Z,56.43
2023-03-14T17:00:36.407Z,57.93
2023-03-14T17:03:03.874Z,57.03
2023-03-14T17:05:30.861Z,57.28
2023-03-14T17:07:57.452Z,56.69
2023-03-14T17:10:24.900Z,57.53
2023-03-14T17:12:51.343Z,56.43
2023-03-14T17:15:17.793Z,58.71
2023-03-14T17:17:44.411Z,57.35
2023-03-14T17:20:11.598Z,58.86
2023-03-14T17:22:38.139Z,57.99
2023-03-14T17:25:04.742Z,59.27
2023-03-14T17:27:31.810Z,59.73
2023-03-14T17:29:58.340Z,60.49
2023-03-14T17:32:26.207Z,60.49
2023-03-14T17:34:54.487Z,60.24
2023-03-14T17:37:21.143Z,59.83
2023-03-14T17:39:47.679Z,60.61
2023-03-14T17:42:14.094Z,60.79
2023-03-14T17:44:41.537Z,60.60
2023-03-14T17:47:08.083Z,61.37
2023-03-14T17:49:34.470Z,61.92
2023-03-14T17:52:00.916Z,61.25
2023-03-14T17:54:27.347Z,61.75
2023-03-14T17:56:53.826Z,61.84
2023-03-14T17:59:20.633Z,61.84
2023-03-14T18:01:47.299Z,62.44
2023-03-14T18:04:14.737Z,64.66
2023-03-14T18:06:44.706Z,61.27
2023-03-14T18:09:11.265Z,62.64
2023-03-14T18:11:37.767Z,62.44
2023-03-14T18:14:07.634Z,63.04
2023-03-14T18:16:35.352Z,63.07
2023-03-14T18:19:03.221Z,62.74
2023-03-14T18:21:30.989Z,62.41
2023-03-14T18:23:57.590Z,61.68
2023-03-14T18:26:27.375Z,61.42
2023-03-14T18:28:54.681Z,61.11
2023-03-14T18:31:25.023Z,61.35
2023-03-14T18:33:55.401Z,62.32
2023-03-14T18:36:22.433Z,61.73
2023-03-14T18:38:50.710Z,62.02
2023-03-14T18:41:23.268Z,62.33
2023-03-14T18:43:50.214Z,62.30
2023-03-14T18:46:16.881Z,63.57
2023-03-14T18:48:43.434Z,62.77
2023-03-14T18:51:12.254Z,63.63
2023-03-14T18:53:39.325Z,63.50
2023-03-14T18:56:06.323Z,64.08
2023-03-14T18:58:33.161Z,63.39
2023-03-14T19:01:02.495Z,64.04
2023-03-14T19:03:30.306Z,64.18
2023-03-14T19:05:58.336Z,65.24
2023-03-14T19:08:26.715Z,65.62
2023-03-14T19:10:55.997Z,65.94
2023-03-14T19:13:23.114Z,66.73
2023-03-14T19:15:49.648Z,67.35
2023-03-14T19:18:16.195Z,67.37
2023-03-14T19:20:43.257Z,67.18
2023-03-14T19:23:09.712Z,68.49
2023-03-14T19:25:36.072Z,68.97
2023-03-14T19:28:02.611Z,68.72
2023-03-14T19:30:30.040Z,69.10
2023-03-14T19:32:56.682Z,69.33
2023-03-14T19:35:23.277Z,68.13
2023-03-14T19:37:49.763Z,67.64
2023-03-14T19:40:16.372Z,68.11
2023-03-14T19:42:43.247Z,68.35
2023-03-14T19:45:10.383Z,68.13
2023-03-14T19:47:37.308Z,68.49
2023-03-14T19:50:04.129Z,68.78
2023-03-14T19:52:30.626Z,65.46
2023-03-14T19:54:57.389Z,66.00
2023-03-14T19:57:24.327Z,67.38
2023-03-14T19:59:51.192Z,67.46
2023-03-14T20:02:19.628Z,67.29
2023-03-14T20:04:46.650Z,68.00
2023-03-14T20:07:14.193Z,68.54
2023-03-14T20:09:41.058Z,68.23
2023-03-14T20:12:08.960Z,69.11
2023-03-14T20:14:35.860Z,70.12
2023-03-14T20:17:03.181Z,69.90
2023-03-14T20:19:29.771Z,69.84
2023-03-14T20:21:56.249Z,70.94
2023-03-14T20:24:22.671Z,70.31
2023-03-14T20:26:49.243Z,71.17
2023-03-14T20:29:15.672Z,71.95
2023-03-14T20:31:43.069Z,73.32
2023-03-14T20:34:09.689Z,76.00
2023-03-14T20:36:37.966Z,76.72
2023-03-14T20:39:05.409Z,76.99
2023-03-14T20:41:32.079Z,77.82
2023-03-14T20:43:58.702Z,77.35
2023-03-14T20:46:25.282Z,78.24
2023-03-14T20:48:51.784Z,76.65
2023-03-14T20:51:18.243Z,76.17
2023-03-14T20:53:45.132Z,78.27
2023-03-14T20:56:11.612Z,79.30
2023-03-14T20:58:38.020Z,79.59
2023-03-14T21:01:04.782Z,79.81
2023-03-14T21:03:31.306Z,79.62
2023-03-14T21:05:58.681Z,78.73
2023-03-14T21:08:25.868Z,78.81
2023-03-14T21:10:55.297Z,77.57
2023-03-14T21:13:22.216Z,78.43
2023-03-14T21:15:49.018Z,77.90
2023-03-14T21:18:16.236Z,79.23
2023-03-14T21:20:43.568Z,78.86
2023-03-14T21:23:14.222Z,79.74
2023-03-14T21:25:43.443Z,79.03
2023-03-14T21:28:12.376Z,78.69
2023-03-14T21:30:39.165Z,78.96
2023-03-14T21:33:05.550Z,77.55
2023-03-14T21:35:32.017Z,77.97
2023-03-14T21:37:59.108Z,79.09
2023-03-14T21:40:25.614Z,77.87
2023-03-14T21:42:55.437Z,77.46
2023-03-14T21:45:25.858Z,78.50
2023-03-14T21:47:55.589Z,78.67
2023-03-14T21:50:24.423Z,78.35
2023-03-14T21:52:52.057Z,78.73
2023-03-14T21:55:18.912Z,78.19
2023-03-14T21:57:49.199Z,78.36
2023-03-14T22:00:18.179Z,79.50
2023-03-14T22:02:58.226Z,80.04
2023-03-14T22:05:32.455Z,79.56
2023-03-14T22:07:58.850Z,80.13
2023-03-14T22:10:25.324Z,79.75
2023-03-14T22:12:51.736Z,79.67
2023-03-14T22:15:18.351Z,81.36
2023-03-14T22:17:44.851Z,81.16
2023-03-14T22:20:13.823Z,81.89
2023-03-14T22:22:40.987Z,81.98
2023-03-14T22:25:08.045Z,82.44
2023-03-14T22:27:34.542Z,82.00
2023-03-14T22:30:01.032Z,82.89
2023-03-14T22:32:27.670Z,82.94
2023-03-14T22:34:54.276Z,83.05
2023-03-14T22:37:21.276Z,83.23
2023-03-14T22:39:47.746Z,82.87
2023-03-14T22:42:14.100Z,82.80
2023-03-14T22:44:40.539Z,83.37
2023-03-14T22:47:06.985Z,82.27
2023-03-14T22:49:33.593Z,82.82
2023-03-14T22:52:00.095Z,82.55
2023-03-14T22:54:27.926Z,81.45
2023-03-14T22:56:54.398Z,83.41
2023-03-14T22:59:20.905Z,83.47
2023-03-14T23:18:21.888Z,92.79
2023-03-14T23:20:48.838Z,92.32
2023-03-14T23:23:15.379Z,92.62
2023-03-14T23:25:52.910Z,90.80
2023-03-14T23:28:23.057Z,91.01
2023-03-14T23:30:57.516Z,91.68
2023-03-14T23:33:25.689Z,90.75
2023-03-14T23:35:54.402Z,92.36
2023-03-14T23:38:22.224Z,92.42
2023-03-14T23:40:48.906Z,92.37
2023-03-14T23:43:15.501Z,91.62
2023-03-14T23:45:42.027Z,92.63
2023-03-14T23:48:08.742Z,94.00
2023-03-14T23:50:36.767Z,93.90
2023-03-14T23:53:03.463Z,92.90
2023-03-14T23:55:30.509Z,94.92
2023-03-14T23:57:57.047Z,95.24
